sensor_id;sensor_type;location;lat;lon;timestamp;P1;durP1;ratioP1;P2;durP2;ratioP2
4831;SDS011;2430;51.322;7.864;2023-02-15T00:01:54;14.13;;;6.93;;
4831;SDS011;2430;51.322;7.864;2023-02-15T00:04:24;14.90;;;6.90;;
4831;SDS011;2430;51.322;7.864;2023-02-15T00:07:13;13.13;;;6.67;;
4831;SDS011;2430;51.322;7.864;2023-02-15T00:09:39;17.10;;;7.70;;
4831;SDS011;2430;51.322;7.864;2023-02-15T00:12:06;14.87;;;6.77;;
4831;SDS011;2430;51.322;7.864;2023-02-15T00:14:32;8.93;;;7.07;;
4831;SDS011;2430;51.322;7.864;2023-02-15T00:16:59;9.60;;;6.30;;
4831;SDS011;2430;51.322;7.864;2023-02-15T00:19:25;10.33;;;6.07;;
4831;SDS011;2430;51.322;7.864;2023-02-15T00:21:52;15.97;;;6.57;;
4831;SDS011;2430;51.322;7.864;2023-02-15T00:24:21;11.40;;;7.80;;
4831;SDS011;2430;51.322;7.864;2023-02-15T00:26:47;10.13;;;6.43;;
4831;SDS011;2430;51.322;7.864;2023-02-15T00:29:15;9.80;;;7.13;;
4831;SDS011;2430;51.322;7.864;2023-02-15T00:31:42;17.43;;;8.27;;
4831;SDS011;2430;51.322;7.864;2023-02-15T00:34:10;15.80;;;8.33;;
4831;SDS011;2430;51.322;7.864;2023-02-15T00:36:37;13.30;;;7.70;;
4831;SDS011;2430;51.322;7.864;2023-02-15T00:39:04;9.53;;;6.80;;
4831;SDS011;2430;51.322;7.864;2023-02-15T00:41:31;7.97;;;6.23;;
4831;SDS011;2430;51.322;7.864;2023-02-15T00:43:58;12.63;;;6.70;;
4831;SDS011;2430;51.322;7.864;2023-02-15T00:46:25;9.00;;;5.53;;
4831;SDS011;2430;51.322;7.864;2023-02-15T00:48:51;12.60;;;6.43;;
4831;SDS011;2430;51.322;7.864;2023-02-15T00:51:18;8.20;;;6.10;;
4831;SDS011;2430;51.322;7.864;2023-02-15T00:53:45;6.83;;;5.03;;
4831;SDS011;2430;51.322;7.864;2023-02-15T00:56:12;10.80;;;5.87;;
4831;SDS011;2430;51.322;7.864;2023-02-15T00:58:39;11.53;;;5.60;;
4831;SDS011;2430;51.322;7.864;2023-02-15T01:01:07;8.73;;;5.50;;
4831;SDS011;2430;51.322;7.864;2023-02-15T01:03:33;6.63;;;5.10;;
4831;SDS011;2430;51.322;7.864;2023-02-15T01:06:00;11.33;;;5.67;;
4831;SDS011;2430;51.322;7.864;2023-02-15T01:08:27;14.67;;;6.20;;
4831;SDS011;2430;51.322;7.864;2023-02-15T01:10:53;7.07;;;5.30;;
4831;SDS011;2430;51.322;7.864;2023-02-15T01:13:20;7.87;;;5.70;;
4831;SDS011;2430;51.322;7.864;2023-02-15T01:15:52;8.27;;;5.43;;
4831;SDS011;2430;51.322;7.864;2023-02-15T01:18:19;11.10;;;6.17;;
4831;SDS011;2430;51.322;7.864;2023-02-15T01:20:45;7.67;;;5.93;;
4831;SDS011;2430;51.322;7.864;2023-02-15T01:23:12;5.47;;;4.50;;
4831;SDS011;2430;51.322;7.864;2023-02-15T01:25:39;10.87;;;5.23;;
4831;SDS011;2430;51.322;7.864;2023-02-15T01:28:05;8.57;;;5.53;;
4831;SDS011;2430;51.322;7.864;2023-02-15T01:30:32;7.10;;;5.07;;
4831;SDS011;2430;51.322;7.864;2023-02-15T01:33:00;7.70;;;5.80;;
4831;SDS011;2430;51.322;7.864;2023-02-15T01:35:27;6.47;;;4.73;;
4831;SDS011;2430;51.322;7.864;2023-02-15T01:37:53;6.40;;;5.80;;
4831;SDS011;2430;51.322;7.864;2023-02-15T01:40:20;6.27;;;5.00;;
4831;SDS011;2430;51.322;7.864;2023-02-15T01:42:49;7.90;;;6.00;;
4831;SDS011;2430;51.322;7.864;2023-02-15T01:45:18;6.20;;;4.37;;
4831;SDS011;2430;51.322;7.864;2023-02-15T01:47:47;15.50;;;4.47;;
4831;SDS011;2430;51.322;7.864;2023-02-15T01:50:16;8.33;;;4.77;;
4831;SDS011;2430;51.322;7.864;2023-02-15T01:52:44;6.03;;;5.20;;
4831;SDS011;2430;51.322;7.864;2023-02-15T01:55:12;7.07;;;4.27;;
4831;SDS011;2430;51.322;7.864;2023-02-15T01:57:41;10.20;;;5.43;;
4831;SDS011;2430;51.322;7.864;2023-02-15T02:00:08;6.40;;;5.07;;
4831;SDS011;2430;51.322;7.864;2023-02-15T02:02:35;7.73;;;5.80;;
4831;SDS011;2430;51.322;7.864;2023-02-15T02:05:03;5.43;;;4.53;;
4831;SDS011;2430;51.322;7.864;2023-02-15T02:07:33;13.13;;;5.13;;
4831;SDS011;2430;51.322;7.864;2023-02-15T02:10:02;8.10;;;5.10;;
4831;SDS011;2430;51.322;7.864;2023-02-15T02:12:28;4.87;;;4.30;;
4831;SDS011;2430;51.322;7.864;2023-02-15T02:14:55;7.73;;;4.77;;
4831;SDS011;2430;51.322;7.864;2023-02-15T02:17:24;8.17;;;5.30;;
4831;SDS011;2430;51.322;7.864;2023-02-15T02:22:49;12.67;;;5.50;;
4831;SDS011;2430;51.322;7.864;2023-02-15T02:28:15;7.23;;;5.30;;
4831;SDS011;2430;51.322;7.864;2023-02-15T02:30:53;6.13;;;5.00;;
4831;SDS011;2430;51.322;7.864;2023-02-15T02:33:29;5.70;;;4.90;;
4831;SDS011;2430;51.322;7.864;2023-02-15T02:36:01;8.60;;;5.90;;
4831;SDS011;2430;51.322;7.864;2023-02-15T02:38:32;6.40;;;4.30;;
4831;SDS011;2430;51.322;7.864;2023-02-15T02:41:06;12.17;;;4.73;;
4831;SDS011;2430;51.322;7.864;2023-02-15T02:43:36;6.53;;;5.20;;
4831;SDS011;2430;51.322;7.864;2023-02-15T02:46:05;8.80;;;5.77;;
4831;SDS011;2430;51.322;7.864;2023-02-15T02:48:34;9.13;;;5.40;;
4831;SDS011;2430;51.322;7.864;2023-02-15T02:51:01;12.20;;;6.17;;
4831;SDS011;2430;51.322;7.864;2023-02-15T02:53:29;7.70;;;4.73;;
4831;SDS011;2430;51.322;7.864;2023-02-15T02:55:57;4.77;;;4.33;;
4831;SDS011;2430;51.322;7.864;2023-02-15T02:58:26;6.63;;;4.03;;
4831;SDS011;2430;51.322;7.864;2023-02-15T03:00:56;10.00;;;6.33;;
4831;SDS011;2430;51.322;7.864;2023-02-15T03:03:24;7.37;;;5.73;;
4831;SDS011;2430;51.322;7.864;2023-02-15T03:05:54;7.17;;;4.83;;
4831;SDS011;2430;51.322;7.864;2023-02-15T03:08:24;11.63;;;5.77;;
4831;SDS011;2430;51.322;7.864;2023-02-15T03:10:53;8.83;;;5.27;;
4831;SDS011;2430;51.322;7.864;2023-02-15T03:13:21;9.23;;;4.70;;
4831;SDS011;2430;51.322;7.864;2023-02-15T03:15:48;5.17;;;4.43;;
4831;SDS011;2430;51.322;7.864;2023-02-15T03:18:34;7.27;;;6.03;;
4831;SDS011;2430;51.322;7.864;2023-02-15T03:21:03;8.63;;;5.40;;
4831;SDS011;2430;51.322;7.864;2023-02-15T03:23:31;8.37;;;6.10;;
4831;SDS011;2430;51.322;7.864;2023-02-15T03:25:59;5.70;;;3.73;;
4831;SDS011;2430;51.322;7.864;2023-02-15T03:28:29;6.17;;;4.70;;
4831;SDS011;2430;51.322;7.864;2023-02-15T03:30:57;4.80;;;4.27;;
4831;SDS011;2430;51.322;7.864;2023-02-15T03:33:25;6.93;;;4.97;;
4831;SDS011;2430;51.322;7.864;2023-02-15T03:35:53;5.53;;;4.93;;
4831;SDS011;2430;51.322;7.864;2023-02-15T03:38:25;5.53;;;4.60;;
4831;SDS011;2430;51.322;7.864;2023-02-15T03:40:53;8.20;;;5.73;;
4831;SDS011;2430;51.322;7.864;2023-02-15T03:43:40;15.93;;;4.97;;
4831;SDS011;2430;51.322;7.864;2023-02-15T03:46:11;7.40;;;5.47;;
4831;SDS011;2430;51.322;7.864;2023-02-15T03:48:39;5.50;;;4.90;;
4831;SDS011;2430;51.322;7.864;2023-02-15T03:51:07;7.23;;;4.80;;
4831;SDS011;2430;51.322;7.864;2023-02-15T03:53:54;8.60;;;5.30;;
4831;SDS011;2430;51.322;7.864;2023-02-15T03:56:21;8.50;;;5.67;;
4831;SDS011;2430;51.322;7.864;2023-02-15T03:58:48;6.33;;;4.77;;
4831;SDS011;2430;51.322;7.864;2023-02-15T04:01:33;5.90;;;4.67;;
4831;SDS011;2430;51.322;7.864;2023-02-15T04:04:19;6.83;;;4.80;;
4831;SDS011;2430;51.322;7.864;2023-02-15T04:06:47;9.77;;;5.67;;
4831;SDS011;2430;51.322;7.864;2023-02-15T04:09:18;8.67;;;5.57;;
4831;SDS011;2430;51.322;7.864;2023-02-15T04:12:05;12.70;;;5.33;;
4831;SDS011;2430;51.322;7.864;2023-02-15T04:14:32;12.10;;;6.23;;
4831;SDS011;2430;51.322;7.864;2023-02-15T04:17:19;16.73;;;9.20;;
4831;SDS011;2430;51.322;7.864;2023-02-15T04:19:46;14.57;;;10.37;;
4831;SDS011;2430;51.322;7.864;2023-02-15T04:22:30;22.20;;;11.93;;
4831;SDS011;2430;51.322;7.864;2023-02-15T04:25:16;21.23;;;10.83;;
4831;SDS011;2430;51.322;7.864;2023-02-15T04:27:43;23.03;;;12.33;;
4831;SDS011;2430;51.322;7.864;2023-02-15T04:30:10;23.20;;;12.43;;
4831;SDS011;2430;51.322;7.864;2023-02-15T04:32:37;22.90;;;12.10;;
4831;SDS011;2430;51.322;7.864;2023-02-15T04:35:05;19.00;;;10.30;;
4831;SDS011;2430;51.322;7.864;2023-02-15T04:37:32;13.77;;;8.40;;
4831;SDS011;2430;51.322;7.864;2023-02-15T04:39:59;14.80;;;8.00;;
4831;SDS011;2430;51.322;7.864;2023-02-15T04:42:30;10.00;;;7.17;;
4831;SDS011;2430;51.322;7.864;2023-02-15T04:44:59;11.07;;;5.70;;
4831;SDS011;2430;51.322;7.864;2023-02-15T04:47:29;8.60;;;5.33;;
4831;SDS011;2430;51.322;7.864;2023-02-15T04:49:56;8.17;;;6.30;;
4831;SDS011;2430;51.322;7.864;2023-02-15T04:52:22;11.77;;;6.33;;
4831;SDS011;2430;51.322;7.864;2023-02-15T04:54:49;8.50;;;6.80;;
4831;SDS011;2430;51.322;7.864;2023-02-15T04:57:16;8.10;;;5.97;;
4831;SDS011;2430;51.322;7.864;2023-02-15T04:59:44;8.00;;;5.70;;
4831;SDS011;2430;51.322;7.864;2023-02-15T05:02:11;9.13;;;5.20;;
4831;SDS011;2430;51.322;7.864;2023-02-15T05:04:38;10.53;;;7.40;;
4831;SDS011;2430;51.322;7.864;2023-02-15T05:07:04;10.40;;;6.47;;
4831;SDS011;2430;51.322;7.864;2023-02-15T05:09:31;10.03;;;7.20;;
4831;SDS011;2430;51.322;7.864;2023-02-15T05:11:58;6.50;;;5.83;;
4831;SDS011;2430;51.322;7.864;2023-02-15T05:14:25;7.73;;;5.50;;
4831;SDS011;2430;51.322;7.864;2023-02-15T05:16:53;6.87;;;5.37;;
4831;SDS011;2430;51.322;7.864;2023-02-15T05:19:20;10.40;;;6.93;;
4831;SDS011;2430;51.322;7.864;2023-02-15T05:21:48;7.13;;;6.10;;
4831;SDS011;2430;51.322;7.864;2023-02-15T05:24:15;8.70;;;5.73;;
4831;SDS011;2430;51.322;7.864;2023-02-15T05:26:59;6.80;;;5.27;;
4831;SDS011;2430;51.322;7.864;2023-02-15T05:29:43;14.70;;;5.90;;
4831;SDS011;2430;51.322;7.864;2023-02-15T05:32:13;9.83;;;6.53;;
4831;SDS011;2430;51.322;7.864;2023-02-15T05:34:40;8.67;;;6.10;;
4831;SDS011;2430;51.322;7.864;2023-02-15T05:37:07;9.37;;;6.70;;
4831;SDS011;2430;51.322;7.864;2023-02-15T05:39:33;18.50;;;6.93;;
4831;SDS011;2430;51.322;7.864;2023-02-15T05:42:00;9.90;;;6.30;;
4831;SDS011;2430;51.322;7.864;2023-02-15T05:44:27;11.47;;;6.63;;
4831;SDS011;2430;51.322;7.864;2023-02-15T05:46:54;8.30;;;6.83;;
4831;SDS011;2430;51.322;7.864;2023-02-15T05:49:23;6.13;;;4.30;;
4831;SDS011;2430;51.322;7.864;2023-02-15T05:51:49;10.20;;;5.70;;
4831;SDS011;2430;51.322;7.864;2023-02-15T05:54:16;5.33;;;4.83;;
4831;SDS011;2430;51.322;7.864;2023-02-15T05:56:42;11.07;;;5.33;;
4831;SDS011;2430;51.322;7.864;2023-02-15T05:59:08;12.27;;;6.27;;
4831;SDS011;2430;51.322;7.864;2023-02-15T06:01:35;7.57;;;6.10;;
4831;SDS011;2430;51.322;7.864;2023-02-15T06:04:01;10.90;;;5.60;;
4831;SDS011;2430;51.322;7.864;2023-02-15T06:06:29;10.80;;;6.40;;
4831;SDS011;2430;51.322;7.864;2023-02-15T06:08:55;11.33;;;6.13;;
4831;SDS011;2430;51.322;7.864;2023-02-15T06:11:22;6.27;;;5.20;;
4831;SDS011;2430;51.322;7.864;2023-02-15T06:13:48;7.53;;;5.90;;
4831;SDS011;2430;51.322;7.864;2023-02-15T06:16:15;16.83;;;5.90;;
4831;SDS011;2430;51.322;7.864;2023-02-15T06:18:42;11.10;;;5.27;;
4831;SDS011;2430;51.322;7.864;2023-02-15T06:21:09;8.47;;;4.57;;
4831;SDS011;2430;51.322;7.864;2023-02-15T06:23:36;10.83;;;5.53;;
4831;SDS011;2430;51.322;7.864;2023-02-15T06:26:03;9.23;;;5.87;;
4831;SDS011;2430;51.322;7.864;2023-02-15T06:28:29;9.67;;;5.43;;
4831;SDS011;2430;51.322;7.864;2023-02-15T06:30:56;5.87;;;4.97;;
4831;SDS011;2430;51.322;7.864;2023-02-15T06:33:22;5.50;;;4.17;;
4831;SDS011;2430;51.322;7.864;2023-02-15T06:35:49;8.50;;;6.10;;
4831;SDS011;2430;51.322;7.864;2023-02-15T06:38:15;7.30;;;5.70;;
4831;SDS011;2430;51.322;7.864;2023-02-15T06:40:44;6.40;;;4.90;;
4831;SDS011;2430;51.322;7.864;2023-02-15T06:43:10;5.03;;;4.53;;
4831;SDS011;2430;51.322;7.864;2023-02-15T06:45:37;11.03;;;6.80;;
4831;SDS011;2430;51.322;7.864;2023-02-15T06:48:04;8.47;;;5.20;;
4831;SDS011;2430;51.322;7.864;2023-02-15T06:50:32;12.10;;;6.63;;
4831;SDS011;2430;51.322;7.864;2023-02-15T06:53:01;7.57;;;5.53;;
4831;SDS011;2430;51.322;7.864;2023-02-15T06:55:28;13.47;;;5.73;;
4831;SDS011;2430;51.322;7.864;2023-02-15T06:57:56;5.87;;;4.20;;
4831;SDS011;2430;51.322;7.864;2023-02-15T07:00:22;8.83;;;5.60;;
4831;SDS011;2430;51.322;7.864;2023-02-15T07:02:52;8.67;;;5.77;;
4831;SDS011;2430;51.322;7.864;2023-02-15T07:05:20;5.97;;;4.70;;
4831;SDS011;2430;51.322;7.864;2023-02-15T07:07:46;9.77;;;6.30;;
4831;SDS011;2430;51.322;7.864;2023-02-15T07:10:16;6.40;;;4.83;;
4831;SDS011;2430;51.322;7.864;2023-02-15T07:12:42;7.67;;;5.27;;
4831;SDS011;2430;51.322;7.864;2023-02-15T07:15:12;8.77;;;5.90;;
4831;SDS011;2430;51.322;7.864;2023-02-15T07:17:40;6.40;;;4.80;;
4831;SDS011;2430;51.322;7.864;2023-02-15T07:20:07;21.13;;;8.37;;
4831;SDS011;2430;51.322;7.864;2023-02-15T07:22:34;7.20;;;5.73;;
4831;SDS011;2430;51.322;7.864;2023-02-15T07:25:01;7.40;;;4.60;;
4831;SDS011;2430;51.322;7.864;2023-02-15T07:27:27;8.37;;;4.73;;
4831;SDS011;2430;51.322;7.864;2023-02-15T07:29:54;6.33;;;5.00;;
4831;SDS011;2430;51.322;7.864;2023-02-15T07:32:22;5.27;;;4.53;;
4831;SDS011;2430;51.322;7.864;2023-02-15T07:34:48;5.90;;;4.60;;
4831;SDS011;2430;51.322;7.864;2023-02-15T07:37:15;7.77;;;5.60;;
4831;SDS011;2430;51.322;7.864;2023-02-15T07:39:41;9.23;;;5.60;;
4831;SDS011;2430;51.322;7.864;2023-02-15T07:42:10;13.73;;;3.93;;
4831;SDS011;2430;51.322;7.864;2023-02-15T07:44:37;5.47;;;4.40;;
4831;SDS011;2430;51.322;7.864;2023-02-15T07:47:03;14.43;;;5.93;;
4831;SDS011;2430;51.322;7.864;2023-02-15T07:49:32;7.67;;;4.93;;
4831;SDS011;2430;51.322;7.864;2023-02-15T07:51:59;6.87;;;4.70;;
4831;SDS011;2430;51.322;7.864;2023-02-15T07:54:26;8.30;;;4.87;;
4831;SDS011;2430;51.322;7.864;2023-02-15T07:56:52;8.77;;;4.73;;
4831;SDS011;2430;51.322;7.864;2023-02-15T07:59:19;7.17;;;4.83;;
4831;SDS011;2430;51.322;7.864;2023-02-15T08:01:45;6.83;;;4.67;;
4831;SDS011;2430;51.322;7.864;2023-02-15T08:04:12;9.90;;;4.00;;
4831;SDS011;2430;51.322;7.864;2023-02-15T08:06:40;6.00;;;4.43;;
4831;SDS011;2430;51.322;7.864;2023-02-15T08:09:07;7.17;;;4.40;;
4831;SDS011;2430;51.322;7.864;2023-02-15T08:11:34;7.73;;;4.97;;
4831;SDS011;2430;51.322;7.864;2023-02-15T08:14:05;9.90;;;5.47;;
4831;SDS011;2430;51.322;7.864;2023-02-15T08:16:33;9.30;;;5.87;;
4831;SDS011;2430;51.322;7.864;2023-02-15T08:19:01;9.20;;;5.40;;
4831;SDS011;2430;51.322;7.864;2023-02-15T08:21:32;9.53;;;5.33;;
4831;SDS011;2430;51.322;7.864;2023-02-15T08:24:00;10.13;;;5.47;;
4831;SDS011;2430;51.322;7.864;2023-02-15T08:26:26;6.27;;;4.83;;
4831;SDS011;2430;51.322;7.864;2023-02-15T08:28:53;15.00;;;5.30;;
4831;SDS011;2430;51.322;7.864;2023-02-15T08:31:20;9.03;;;5.07;;
4831;SDS011;2430;51.322;7.864;2023-02-15T08:33:47;9.27;;;4.93;;
4831;SDS011;2430;51.322;7.864;2023-02-15T08:36:15;12.20;;;6.03;;
4831;SDS011;2430;51.322;7.864;2023-02-15T08:38:41;7.00;;;4.37;;
4831;SDS011;2430;51.322;7.864;2023-02-15T08:41:10;6.83;;;4.27;;
4831;SDS011;2430;51.322;7.864;2023-02-15T08:43:37;11.00;;;5.30;;
4831;SDS011;2430;51.322;7.864;2023-02-15T08:46:03;8.87;;;4.73;;
4831;SDS011;2430;51.322;7.864;2023-02-15T08:48:30;7.90;;;5.23;;
4831;SDS011;2430;51.322;7.864;2023-02-15T08:50:56;10.10;;;4.80;;
4831;SDS011;2430;51.322;7.864;2023-02-15T08:53:23;7.73;;;5.03;;
4831;SDS011;2430;51.322;7.864;2023-02-15T08:55:54;7.97;;;4.57;;
4831;SDS011;2430;51.322;7.864;2023-02-15T08:58:22;9.43;;;5.10;;
4831;SDS011;2430;51.322;7.864;2023-02-15T09:00:48;9.23;;;4.10;;
4831;SDS011;2430;51.322;7.864;2023-02-15T09:03:15;7.20;;;4.37;;
4831;SDS011;2430;51.322;7.864;2023-02-15T09:05:42;10.47;;;5.07;;
4831;SDS011;2430;51.322;7.864;2023-02-15T09:08:15;8.73;;;4.80;;
4831;SDS011;2430;51.322;7.864;2023-02-15T09:10:47;5.10;;;4.20;;
4831;SDS011;2430;51.322;7.864;2023-02-15T09:13:14;7.17;;;4.43;;
4831;SDS011;2430;51.322;7.864;2023-02-15T09:15:42;7.83;;;4.37;;
4831;SDS011;2430;51.322;7.864;2023-02-15T09:18:09;7.70;;;4.40;;
4831;SDS011;2430;51.322;7.864;2023-02-15T09:20:37;6.97;;;4.93;;
4831;SDS011;2430;51.322;7.864;2023-02-15T09:23:03;7.20;;;4.70;;
4831;SDS011;2430;51.322;7.864;2023-02-15T09:25:30;5.33;;;4.23;;
4831;SDS011;2430;51.322;7.864;2023-02-15T09:27:56;6.90;;;4.07;;
4831;SDS011;2430;51.322;7.864;2023-02-15T09:30:23;6.37;;;4.30;;
4831;SDS011;2430;51.322;7.864;2023-02-15T09:32:51;6.90;;;4.83;;
4831;SDS011;2430;51.322;7.864;2023-02-15T09:35:17;7.50;;;4.53;;
4831;SDS011;2430;51.322;7.864;2023-02-15T09:37:43;9.10;;;4.13;;
4831;SDS011;2430;51.322;7.864;2023-02-15T09:40:11;10.87;;;5.30;;
4831;SDS011;2430;51.322;7.864;2023-02-15T09:42:45;7.80;;;4.40;;
4831;SDS011;2430;51.322;7.864;2023-02-15T09:45:30;8.20;;;4.43;;
4831;SDS011;2430;51.322;7.864;2023-02-15T09:48:09;7.37;;;4.13;;
4831;SDS011;2430;51.322;7.864;2023-02-15T09:50:41;7.53;;;3.80;;
4831;SDS011;2430;51.322;7.864;2023-02-15T09:53:19;6.97;;;4.87;;
4831;SDS011;2430;51.322;7.864;2023-02-15T09:55:51;11.40;;;5.70;;
4831;SDS011;2430;51.322;7.864;2023-02-15T09:58:22;9.90;;;4.90;;
4831;SDS011;2430;51.322;7.864;2023-02-15T10:00:53;6.23;;;4.80;;
4831;SDS011;2430;51.322;7.864;2023-02-15T10:03:29;7.10;;;4.83;;
4831;SDS011;2430;51.322;7.864;2023-02-15T10:06:04;7.33;;;4.27;;
4831;SDS011;2430;51.322;7.864;2023-02-15T10:08:36;8.90;;;4.90;;
4831;SDS011;2430;51.322;7.864;2023-02-15T10:11:08;7.17;;;4.53;;
4831;SDS011;2430;51.322;7.864;2023-02-15T10:13:57;8.33;;;4.80;;
4831;SDS011;2430;51.322;7.864;2023-02-15T10:16:30;6.90;;;5.07;;
4831;SDS011;2430;51.322;7.864;2023-02-15T10:19:04;5.90;;;4.30;;
4831;SDS011;2430;51.322;7.864;2023-02-15T10:21:38;7.57;;;3.80;;
4831;SDS011;2430;51.322;7.864;2023-02-15T10:24:10;7.37;;;4.33;;
4831;SDS011;2430;51.322;7.864;2023-02-15T10:26:41;6.93;;;4.90;;
4831;SDS011;2430;51.322;7.864;2023-02-15T10:29:09;11.23;;;4.03;;
4831;SDS011;2430;51.322;7.864;2023-02-15T10:31:43;8.60;;;4.13;;
4831;SDS011;2430;51.322;7.864;2023-02-15T10:34:16;9.10;;;4.50;;
4831;SDS011;2430;51.322;7.864;2023-02-15T10:36:48;7.00;;;4.40;;
4831;SDS011;2430;51.322;7.864;2023-02-15T10:39:20;7.60;;;4.33;;
4831;SDS011;2430;51.322;7.864;2023-02-15T10:41:52;5.77;;;4.40;;
4831;SDS011;2430;51.322;7.864;2023-02-15T10:44:25;6.53;;;4.03;;
4831;SDS011;2430;51.322;7.864;2023-02-15T10:47:02;10.97;;;4.67;;
4831;SDS011;2430;51.322;7.864;2023-02-15T10:49:37;7.47;;;4.57;;
4831;SDS011;2430;51.322;7.864;2023-02-15T10:52:12;5.30;;;4.20;;
4831;SDS011;2430;51.322;7.864;2023-02-15T10:54:43;9.03;;;3.73;;
4831;SDS011;2430;51.322;7.864;2023-02-15T10:57:11;7.43;;;4.80;;
4831;SDS011;2430;51.322;7.864;2023-02-15T10:59:46;7.10;;;3.80;;
4831;SDS011;2430;51.322;7.864;2023-02-15T11:02:19;6.93;;;3.60;;
4831;SDS011;2430;51.322;7.864;2023-02-15T11:04:55;5.80;;;3.33;;
4831;SDS011;2430;51.322;7.864;2023-02-15T11:07:27;5.93;;;3.73;;
4831;SDS011;2430;51.322;7.864;2023-02-15T11:09:56;5.73;;;3.23;;
4831;SDS011;2430;51.322;7.864;2023-02-15T11:12:26;6.13;;;3.10;;
4831;SDS011;2430;51.322;7.864;2023-02-15T11:14:55;8.80;;;3.70;;
4831;SDS011;2430;51.322;7.864;2023-02-15T11:17:24;6.63;;;3.47;;
4831;SDS011;2430;51.322;7.864;2023-02-15T11:19:56;7.90;;;3.87;;
4831;SDS011;2430;51.322;7.864;2023-02-15T11:22:25;5.87;;;4.00;;
4831;SDS011;2430;51.322;7.864;2023-02-15T11:24:52;6.87;;;4.10;;
4831;SDS011;2430;51.322;7.864;2023-02-15T11:27:19;18.27;;;3.63;;
4831;SDS011;2430;51.322;7.864;2023-02-15T11:29:50;7.77;;;3.80;;
4831;SDS011;2430;51.322;7.864;2023-02-15T11:32:19;10.60;;;3.13;;
4831;SDS011;2430;51.322;7.864;2023-02-15T11:34:47;5.93;;;3.63;;
4831;SDS011;2430;51.322;7.864;2023-02-15T11:37:17;3.90;;;2.60;;
4831;SDS011;2430;51.322;7.864;2023-02-15T11:39:44;10.77;;;3.40;;
4831;SDS011;2430;51.322;7.864;2023-02-15T11:42:18;7.10;;;4.20;;
4831;SDS011;2430;51.322;7.864;2023-02-15T11:44:48;6.90;;;4.13;;
4831;SDS011;2430;51.322;7.864;2023-02-15T11:47:17;6.30;;;3.80;;
4831;SDS011;2430;51.322;7.864;2023-02-15T11:49:43;9.27;;;4.40;;
4831;SDS011;2430;51.322;7.864;2023-02-15T11:52:12;9.33;;;3.77;;
4831;SDS011;2430;51.322;7.864;2023-02-15T11:54:41;5.53;;;3.10;;
4831;SDS011;2430;51.322;7.864;2023-02-15T11:57:11;7.80;;;4.00;;
4831;SDS011;2430;51.322;7.864;2023-02-15T11:59:39;5.17;;;2.73;;
4831;SDS011;2430;51.322;7.864;2023-02-15T12:02:10;5.80;;;3.40;;
4831;SDS011;2430;51.322;7.864;2023-02-15T12:04:40;4.23;;;3.20;;
4831;SDS011;2430;51.322;7.864;2023-02-15T12:07:09;6.90;;;3.73;;
4831;SDS011;2430;51.322;7.864;2023-02-15T12:09:38;5.23;;;3.40;;
4831;SDS011;2430;51.322;7.864;2023-02-15T12:12:21;7.77;;;3.13;;
4831;SDS011;2430;51.322;7.864;2023-02-15T12:14:49;7.50;;;3.10;;
4831;SDS011;2430;51.322;7.864;2023-02-15T12:17:16;5.00;;;3.03;;
4831;SDS011;2430;51.322;7.864;2023-02-15T12:19:43;11.43;;;3.83;;
4831;SDS011;2430;51.322;7.864;2023-02-15T12:22:18;5.23;;;3.60;;
4831;SDS011;2430;51.322;7.864;2023-02-15T12:24:46;6.40;;;3.60;;
4831;SDS011;2430;51.322;7.864;2023-02-15T12:27:14;4.50;;;2.90;;
4831;SDS011;2430;51.322;7.864;2023-02-15T12:29:42;6.60;;;3.10;;
4831;SDS011;2430;51.322;7.864;2023-02-15T12:32:10;5.27;;;3.20;;
4831;SDS011;2430;51.322;7.864;2023-02-15T12:34:38;4.37;;;3.80;;
4831;SDS011;2430;51.322;7.864;2023-02-15T12:37:08;6.07;;;3.50;;
4831;SDS011;2430;51.322;7.864;2023-02-15T12:39:35;5.80;;;3.53;;
4831;SDS011;2430;51.322;7.864;2023-02-15T12:42:03;3.60;;;2.60;;
4831;SDS011;2430;51.322;7.864;2023-02-15T12:44:30;8.87;;;3.33;;
4831;SDS011;2430;51.322;7.864;2023-02-15T12:46:59;6.77;;;3.93;;
4831;SDS011;2430;51.322;7.864;2023-02-15T12:49:26;4.70;;;3.33;;
4831;SDS011;2430;51.322;7.864;2023-02-15T12:51:54;5.97;;;3.40;;
4831;SDS011;2430;51.322;7.864;2023-02-15T12:54:34;5.33;;;3.40;;
4831;SDS011;2430;51.322;7.864;2023-02-15T12:59:49;6.13;;;3.87;;
4831;SDS011;2430;51.322;7.864;2023-02-15T13:02:19;8.40;;;3.83;;
4831;SDS011;2430;51.322;7.864;2023-02-15T13:04:47;7.17;;;3.60;;
4831;SDS011;2430;51.322;7.864;2023-02-15T13:07:14;9.97;;;4.37;;
4831;SDS011;2430;51.322;7.864;2023-02-15T13:09:41;6.83;;;3.43;;
4831;SDS011;2430;51.322;7.864;2023-02-15T13:12:11;4.83;;;3.20;;
4831;SDS011;2430;51.322;7.864;2023-02-15T13:14:42;9.67;;;3.57;;
4831;SDS011;2430;51.322;7.864;2023-02-15T13:17:10;10.10;;;3.97;;
4831;SDS011;2430;51.322;7.864;2023-02-15T13:19:41;11.23;;;4.37;;
4831;SDS011;2430;51.322;7.864;2023-02-15T13:22:10;10.63;;;4.37;;
4831;SDS011;2430;51.322;7.864;2023-02-15T13:24:39;7.50;;;3.80;;
4831;SDS011;2430;51.322;7.864;2023-02-15T13:27:07;4.80;;;3.50;;
4831;SDS011;2430;51.322;7.864;2023-02-15T13:29:37;4.83;;;3.73;;
4831;SDS011;2430;51.322;7.864;2023-02-15T13:32:07;11.90;;;4.50;;
4831;SDS011;2430;51.322;7.864;2023-02-15T13:34:34;11.60;;;3.90;;
4831;SDS011;2430;51.322;7.864;2023-02-15T13:37:04;8.27;;;4.40;;
4831;SDS011;2430;51.322;7.864;2023-02-15T13:39:33;6.73;;;3.70;;
4831;SDS011;2430;51.322;7.864;2023-02-15T13:42:02;12.03;;;4.80;;
4831;SDS011;2430;51.322;7.864;2023-02-15T13:44:42;10.53;;;4.10;;
4831;SDS011;2430;51.322;7.864;2023-02-15T13:47:16;5.73;;;3.30;;
4831;SDS011;2430;51.322;7.864;2023-02-15T13:49:47;6.70;;;3.27;;
4831;SDS011;2430;51.322;7.864;2023-02-15T13:52:19;10.93;;;3.70;;
4831;SDS011;2430;51.322;7.864;2023-02-15T13:54:53;5.73;;;3.10;;
4831;SDS011;2430;51.322;7.864;2023-02-15T13:57:31;5.50;;;3.30;;
4831;SDS011;2430;51.322;7.864;2023-02-15T14:00:08;9.00;;;3.60;;
4831;SDS011;2430;51.322;7.864;2023-02-15T14:02:52;6.87;;;4.00;;
4831;SDS011;2430;51.322;7.864;2023-02-15T14:05:34;3.57;;;2.70;;
4831;SDS011;2430;51.322;7.864;2023-02-15T14:08:11;8.83;;;4.40;;
4831;SDS011;2430;51.322;7.864;2023-02-15T14:10:43;5.30;;;3.20;;
4831;SDS011;2430;51.322;7.864;2023-02-15T14:13:26;12.03;;;4.30;;
4831;SDS011;2430;51.322;7.864;2023-02-15T14:15:57;9.70;;;3.80;;
4831;SDS011;2430;51.322;7.864;2023-02-15T14:18:29;6.60;;;3.90;;
4831;SDS011;2430;51.322;7.864;2023-02-15T14:21:03;5.07;;;3.40;;
4831;SDS011;2430;51.322;7.864;2023-02-15T14:23:37;6.40;;;3.70;;
4831;SDS011;2430;51.322;7.864;2023-02-15T14:26:06;9.20;;;4.23;;
4831;SDS011;2430;51.322;7.864;2023-02-15T14:28:37;13.40;;;4.20;;
4831;SDS011;2430;51.322;7.864;2023-02-15T14:31:06;11.30;;;4.00;;
4831;SDS011;2430;51.322;7.864;2023-02-15T14:33:37;9.63;;;4.00;;
4831;SDS011;2430;51.322;7.864;2023-02-15T14:36:05;7.47;;;4.30;;
4831;SDS011;2430;51.322;7.864;2023-02-15T14:38:43;9.50;;;4.67;;
4831;SDS011;2430;51.322;7.864;2023-02-15T14:41:12;5.23;;;3.50;;
4831;SDS011;2430;51.322;7.864;2023-02-15T14:43:43;15.33;;;4.57;;
4831;SDS011;2430;51.322;7.864;2023-02-15T14:46:16;9.97;;;3.63;;
4831;SDS011;2430;51.322;7.864;2023-02-15T14:48:44;8.33;;;3.10;;
4831;SDS011;2430;51.322;7.864;2023-02-15T14:51:26;10.10;;;4.60;;
4831;SDS011;2430;51.322;7.864;2023-02-15T14:59:39;8.37;;;4.37;;
4831;SDS011;2430;51.322;7.864;2023-02-15T15:02:09;5.80;;;3.73;;
4831;SDS011;2430;51.322;7.864;2023-02-15T15:04:39;8.47;;;4.47;;
4831;SDS011;2430;51.322;7.864;2023-02-15T15:07:09;9.40;;;3.93;;
4831;SDS011;2430;51.322;7.864;2023-02-15T15:09:45;7.17;;;3.63;;
4831;SDS011;2430;51.322;7.864;2023-02-15T15:12:13;6.63;;;3.73;;
4831;SDS011;2430;51.322;7.864;2023-02-15T15:14:41;6.93;;;3.30;;
4831;SDS011;2430;51.322;7.864;2023-02-15T15:17:12;6.53;;;3.83;;
4831;SDS011;2430;51.322;7.864;2023-02-15T15:22:34;3.83;;;3.03;;
4831;SDS011;2430;51.322;7.864;2023-02-15T15:25:01;7.93;;;4.20;;
4831;SDS011;2430;51.322;7.864;2023-02-15T15:27:49;7.30;;;4.23;;
4831;SDS011;2430;51.322;7.864;2023-02-15T15:33:03;5.40;;;3.27;;
4831;SDS011;2430;51.322;7.864;2023-02-15T15:35:34;7.53;;;3.10;;
4831;SDS011;2430;51.322;7.864;2023-02-15T15:38:12;11.87;;;4.77;;
4831;SDS011;2430;51.322;7.864;2023-02-15T15:40:42;14.47;;;4.83;;
4831;SDS011;2430;51.322;7.864;2023-02-15T15:46:03;12.83;;;4.37;;
4831;SDS011;2430;51.322;7.864;2023-02-15T15:48:34;5.03;;;3.33;;
4831;SDS011;2430;51.322;7.864;2023-02-15T15:51:04;6.63;;;4.30;;